createdAt,value
2023-01-04T00:01:35.176Z,25.63
2023-01-04T00:04:03.563Z,28.85
2023-01-04T00:06:32.105Z,26.50
2023-01-04T00:09:00.524Z,23.25
2023-01-04T00:11:29.165Z,24.63
2023-01-04T00:18:56.081Z,25.80
2023-01-04T00:21:29.991Z,28.02
2023-01-04T00:24:00.656Z,26.25
2023-01-04T00:26:31.854Z,28.52
2023-01-04T00:29:06.882Z,29.38
2023-01-04T00:31:36.108Z,31.17
2023-01-04T00:34:05.963Z,31.27
2023-01-04T00:36:35.358Z,31.65
2023-01-04T00:39:04.395Z,29.95
2023-01-04T00:41:57.576Z,29.02
2023-01-04T00:44:23.150Z,35.03
2023-01-04T00:46:51.602Z,33.00
2023-01-04T00:49:19.971Z,35.72
2023-01-04T00:51:48.383Z,35.08
2023-01-04T00:54:17.096Z,35.50
2023-01-04T00:56:46.146Z,37.72
2023-01-04T00:59:17.280Z,40.47
2023-01-04T01:01:45.912Z,36.17
2023-01-04T01:06:43.519Z,37.90
2023-01-04T01:09:12.581Z,40.63
2023-01-04T01:11:41.395Z,39.75
2023-01-04T01:14:14.433Z,38.80
2023-01-04T01:16:55.060Z,41.15
2023-01-04T01:19:27.025Z,41.78
2023-01-04T01:21:55.605Z,44.83
2023-01-04T01:24:23.974Z,45.50
2023-01-04T01:26:52.350Z,46.63
2023-01-04T01:29:20.724Z,45.88
2023-01-04T01:31:49.069Z,48.33
2023-01-04T01:34:17.423Z,45.15
2023-01-04T01:36:45.800Z,52.53
2023-01-04T01:39:14.319Z,48.80
2023-01-04T01:44:14.047Z,54.25
2023-01-04T01:46:53.181Z,52.90
2023-01-04T01:49:29.437Z,50.95
2023-01-04T01:52:00.481Z,55.13
2023-01-04T01:54:37.659Z,63.17
2023-01-04T01:57:08.078Z,56.47
2023-01-04T01:59:41.259Z,53.55
2023-01-04T02:02:11.264Z,51.40
2023-01-04T02:04:43.858Z,50.30
2023-01-04T02:07:15.303Z,52.78
2023-01-04T02:09:44.945Z,53.55
2023-01-04T02:12:14.645Z,55.22
2023-01-04T02:14:46.296Z,57.85
2023-01-04T02:17:29.683Z,53.58
2023-01-04T02:20:30.262Z,49.53
2023-01-04T02:23:01.418Z,50.90
2023-01-04T02:25:55.474Z,53.30
2023-01-04T02:28:42.096Z,54.75
2023-01-04T02:31:47.459Z,51.22
2023-01-04T02:34:46.136Z,54.80
2023-01-04T02:37:44.989Z,56.58
2023-01-04T02:40:28.661Z,58.40
2023-01-04T02:43:15.577Z,54.25
2023-01-04T02:46:00.503Z,56.15
2023-01-04T02:48:37.059Z,56.83
2023-01-04T02:51:05.467Z,47.53
2023-01-04T02:53:40.604Z,59.97
2023-01-04T02:56:27.044Z,51.47
2023-01-04T02:59:15.827Z,53.47
2023-01-04T03:01:51.332Z,51.95
2023-01-04T03:04:28.684Z,52.72
2023-01-04T03:07:06.304Z,53.78
2023-01-04T03:09:39.351Z,54.97
2023-01-04T03:12:13.060Z,53.75
2023-01-04T03:14:51.433Z,49.17
2023-01-04T03:17:23.124Z,50.33
2023-01-04T03:19:53.842Z,53.38
2023-01-04T03:22:33.082Z,55.78
2023-01-04T03:25:03.984Z,51.20
2023-01-04T03:27:32.384Z,51.92
2023-01-04T03:30:06.505Z,53.33
2023-01-04T03:32:51.540Z,48.45
2023-01-04T03:35:25.066Z,54.72
2023-01-04T03:38:02.235Z,54.72
2023-01-04T03:40:33.450Z,49.42
2023-01-04T03:43:18.347Z,50.10
2023-01-04T03:45:59.180Z,54.20
2023-01-04T03:48:51.193Z,49.75
2023-01-04T03:51:26.321Z,49.58
2023-01-04T03:54:07.555Z,54.22
2023-01-04T03:56:39.984Z,50.88
2023-01-04T03:59:10.154Z,51.47
2023-01-04T04:01:39.172Z,47.05
2023-01-04T04:04:07.566Z,48.25
2023-01-04T04:06:35.803Z,47.45
2023-01-04T04:09:04.804Z,52.50
2023-01-04T04:11:33.432Z,49.85
2023-01-04T04:14:02.092Z,50.38
2023-01-04T04:19:01.861Z,49.22
2023-01-04T04:21:33.048Z,47.03
2023-01-04T04:24:01.234Z,49.63
2023-01-04T04:26:29.529Z,49.03
2023-01-04T04:28:57.918Z,50.00
2023-01-04T04:31:26.370Z,48.95
2023-01-04T04:33:54.590Z,45.25
2023-01-04T04:36:22.743Z,45.60
2023-01-04T04:38:51.096Z,48.13
2023-01-04T04:41:19.321Z,44.00
2023-01-04T04:43:47.716Z,48.55
2023-01-04T04:46:15.863Z,47.92
2023-01-04T04:48:44.105Z,48.08
2023-01-04T04:51:12.480Z,48.78
2023-01-04T04:53:40.632Z,49.03
2023-01-04T04:56:09.621Z,44.35
2023-01-04T04:58:38.397Z,44.50
2023-01-04T05:01:06.758Z,45.85
2023-01-04T05:03:35.602Z,49.90
2023-01-04T05:08:32.023Z,48.78
2023-01-04T05:11:00.357Z,45.67
2023-01-04T05:13:28.664Z,46.80
2023-01-04T05:15:56.880Z,43.65
2023-01-04T05:18:25.269Z,54.33
2023-01-04T05:20:53.421Z,43.92
2023-01-04T05:23:22.819Z,45.28
2023-01-04T05:26:01.746Z,46.38
2023-01-04T05:28:30.118Z,44.72
2023-01-04T05:30:58.274Z,46.15
2023-01-04T05:33:30.028Z,41.20
2023-01-04T05:36:00.373Z,41.63
2023-01-04T05:38:29.433Z,46.88
2023-01-04T05:40:58.101Z,45.17
2023-01-04T05:45:57.342Z,47.63
2023-01-04T05:48:26.067Z,40.92
2023-01-04T05:53:22.281Z,42.53
2023-01-04T05:55:50.631Z,45.30
2023-01-04T05:58:18.817Z,42.97
2023-01-04T06:00:47.073Z,44.45
2023-01-04T06:03:15.557Z,42.42
2023-01-04T06:05:43.751Z,41.25
2023-01-04T06:08:12.258Z,45.17
2023-01-04T06:10:40.575Z,38.25
2023-01-04T06:13:08.848Z,39.35
2023-01-04T06:15:42.832Z,40.50
2023-01-04T06:18:13.828Z,40.50
2023-01-04T06:20:43.956Z,38.88
2023-01-04T06:23:12.445Z,33.97
2023-01-04T06:25:40.752Z,37.83
2023-01-04T06:28:08.939Z,38.78
2023-01-04T06:30:37.210Z,36.83
2023-01-04T06:33:05.316Z,35.30
2023-01-04T06:35:33.608Z,38.53
2023-01-04T06:38:01.878Z,38.20
2023-01-04T06:40:30.016Z,36.50
2023-01-04T06:42:58.331Z,37.33
2023-01-04T06:45:26.600Z,34.95
2023-01-04T06:47:54.914Z,35.38
2023-01-04T06:50:24.443Z,36.70
2023-01-04T06:52:52.786Z,35.00
2023-01-04T06:55:21.063Z,34.35
2023-01-04T06:57:49.384Z,33.85
2023-01-04T07:00:18.269Z,36.42
2023-01-04T07:03:14.632Z,42.55
2023-01-04T07:05:34.837Z,40.25
2023-01-04T07:08:07.971Z,40.72
2023-01-04T07:10:37.093Z,43.00
2023-01-04T07:15:37.094Z,47.85
2023-01-04T07:18:10.084Z,39.70
2023-01-04T07:20:39.325Z,39.67
2023-01-04T07:23:08.620Z,47.13
2023-01-04T07:25:37.140Z,42.63
2023-01-04T07:28:05.393Z,40.15
2023-01-04T07:30:33.820Z,35.15
2023-01-04T07:33:02.165Z,38.97
2023-01-04T07:35:30.418Z,39.85
2023-01-04T07:37:59.348Z,36.72
2023-01-04T07:40:28.318Z,36.88
2023-01-04T07:43:00.292Z,35.80
2023-01-04T07:45:28.460Z,35.42
2023-01-04T07:47:58.174Z,33.83
2023-01-04T07:50:26.544Z,39.83
2023-01-04T07:52:55.126Z,33.33
2023-01-04T07:55:23.254Z,32.88
2023-01-04T07:57:54.185Z,37.03
2023-01-04T08:00:22.629Z,31.88
2023-01-04T08:02:51.237Z,36.33
2023-01-04T08:07:47.673Z,34.38
2023-01-04T08:10:16.070Z,31.85
2023-01-04T08:12:44.263Z,35.75
2023-01-04T08:15:12.596Z,35.17
2023-01-04T08:17:40.827Z,36.83
2023-01-04T08:20:09.521Z,35.08
2023-01-04T08:25:06.347Z,34.00
2023-01-04T08:27:34.836Z,29.92
2023-01-04T08:30:03.414Z,32.47
2023-01-04T08:32:31.714Z,30.15
2023-01-04T08:34:59.945Z,32.22
2023-01-04T08:37:28.149Z,31.05
2023-01-04T08:39:56.313Z,31.55
2023-01-04T08:42:30.672Z,33.30
2023-01-04T08:45:00.456Z,28.17
2023-01-04T08:47:33.599Z,26.73
2023-01-04T08:50:08.262Z,29.45
2023-01-04T08:52:39.066Z,28.95
2023-01-04T08:55:12.711Z,26.50
2023-01-04T08:57:42.425Z,24.17
2023-01-04T09:00:11.537Z,27.95
2023-01-04T09:02:39.840Z,29.85
2023-01-04T09:05:08.747Z,27.67
2023-01-04T09:07:37.142Z,25.17
2023-01-04T09:10:05.789Z,27.00
2023-01-04T09:12:34.172Z,23.83
2023-01-04T09:15:02.622Z,25.50
2023-01-04T09:17:31.045Z,28.35
2023-01-04T09:19:59.277Z,29.70
2023-01-04T09:22:27.623Z,26.77
2023-01-04T09:24:55.824Z,26.05
2023-01-04T09:27:24.111Z,23.70
2023-01-04T09:29:52.406Z,29.70
2023-01-04T09:32:20.584Z,25.90
2023-01-04T09:34:48.974Z,26.58
2023-01-04T09:37:17.076Z,24.83
2023-01-04T09:39:45.399Z,25.20
2023-01-04T09:42:37.501Z,23.85
2023-01-04T09:45:25.798Z,23.95
2023-01-04T09:47:54.232Z,27.02
2023-01-04T09:50:28.034Z,23.90
2023-01-04T09:53:09.495Z,26.58
2023-01-04T09:55:44.371Z,24.15
2023-01-04T09:58:31.092Z,25.10
2023-01-04T10:01:36.206Z,25.25
2023-01-04T10:04:25.863Z,21.88
2023-01-04T10:06:58.062Z,21.00
2023-01-04T10:09:29.553Z,21.50
2023-01-04T10:12:27.773Z,23.17
2023-01-04T10:14:59.123Z,22.83
2023-01-04T10:18:29.858Z,23.83
2023-01-04T10:23:49.264Z,21.92
2023-01-04T10:26:39.276Z,22.50
2023-01-04T10:29:26.091Z,26.20
2023-01-04T10:32:19.802Z,22.70
2023-01-04T10:34:49.202Z,22.77
2023-01-04T10:37:26.792Z,23.65
2023-01-04T10:39:58.150Z,24.07
2023-01-04T10:42:57.233Z,21.35
2023-01-04T10:45:47.933Z,22.30
2023-01-04T10:48:19.266Z,21.45
2023-01-04T10:51:09.845Z,22.50
2023-01-04T10:54:08.587Z,20.15
2023-01-04T10:56:42.655Z,21.48
2023-01-04T10:59:33.676Z,19.60
2023-01-04T11:02:10.901Z,21.55
2023-01-04T11:04:48.798Z,23.50
2023-01-04T11:07:22.619Z,20.33
2023-01-04T11:10:15.720Z,21.25
2023-01-04T11:12:44.168Z,20.52
2023-01-04T11:15:12.760Z,20.50
2023-01-04T11:17:43.025Z,23.98
2023-01-04T11:20:12.188Z,25.73
2023-01-04T11:23:24.960Z,21.55
2023-01-04T11:26:25.819Z,21.23
2023-01-04T11:29:07.672Z,22.65
2023-01-04T11:31:55.147Z,24.65
2023-01-04T11:34:50.951Z,23.92
2023-01-04T11:37:29.288Z,23.33
2023-01-04T11:40:19.069Z,24.48
2023-01-04T11:42:53.080Z,26.30
2023-01-04T11:45:28.954Z,20.73
2023-01-04T11:47:59.095Z,20.98
2023-01-04T11:50:42.189Z,19.63
2023-01-04T11:53:32.416Z,19.23
2023-01-04T11:56:25.105Z,21.33
2023-01-04T11:59:24.565Z,24.95
2023-01-04T12:02:42.760Z,17.92
2023-01-04T12:05:29.593Z,21.48
2023-01-04T12:12:59.767Z,20.40
2023-01-04T12:15:45.883Z,17.58
2023-01-04T12:18:21.843Z,24.02
2023-01-04T12:20:50.251Z,20.17
2023-01-04T12:23:19.249Z,19.42
2023-01-04T12:25:51.703Z,18.25
2023-01-04T12:28:38.633Z,19.90
2023-01-04T12:31:22.580Z,19.70
2023-01-04T12:33:53.520Z,20.00
2023-01-04T12:36:50.855Z,16.83
2023-01-04T12:39:22.325Z,17.23
2023-01-04T12:41:50.583Z,17.98
2023-01-04T12:44:37.709Z,16.73
2023-01-04T12:47:31.673Z,20.02
2023-01-04T12:50:01.242Z,19.05
2023-01-04T12:52:37.788Z,17.42
2023-01-04T12:55:40.587Z,20.48
2023-01-04T12:58:49.694Z,17.48
2023-01-04T13:01:29.148Z,18.70
2023-01-04T13:04:06.080Z,21.52
2023-01-04T13:06:45.521Z,19.10
2023-01-04T13:09:24.570Z,18.45
2023-01-04T13:12:37.144Z,14.75
2023-01-04T13:15:19.725Z,17.98
2023-01-04T13:17:48.457Z,18.40
2023-01-04T13:20:23.228Z,20.25
2023-01-04T13:22:57.301Z,14.93
2023-01-04T13:25:26.737Z,15.27
2023-01-04T13:27:59.655Z,16.95
2023-01-04T13:30:33.593Z,15.70
2023-01-04T13:33:27.786Z,14.88
2023-01-04T13:36:14.781Z,17.13
2023-01-04T13:38:43.204Z,18.63
2023-01-04T13:41:24.230Z,16.80
2023-01-04T13:44:14.701Z,15.70
2023-01-04T13:46:44.347Z,15.30
2023-01-04T13:49:16.873Z,21.33
2023-01-04T13:51:45.320Z,18.00
2023-01-04T13:54:24.196Z,15.38
2023-01-04T13:56:55.729Z,19.83
2023-01-04T13:59:24.485Z,22.65
2023-01-04T14:01:53.216Z,19.88
2023-01-04T14:04:29.164Z,18.00
2023-01-04T14:07:02.081Z,15.77
2023-01-04T14:09:35.006Z,18.70
2023-01-04T14:12:14.482Z,16.67
2023-01-04T14:15:02.398Z,17.63
2023-01-04T14:17:33.587Z,17.98
2023-01-04T14:20:27.582Z,19.25
2023-01-04T14:22:58.099Z,20.25
2023-01-04T14:25:32.626Z,17.90
2023-01-04T14:28:19.846Z,20.30
2023-01-04T14:30:51.239Z,15.18
2023-01-04T14:33:29.946Z,15.15
2023-01-04T14:38:53.870Z,16.70
2023-01-04T14:41:27.145Z,22.88
2023-01-04T14:44:16.887Z,19.88
2023-01-04T14:46:48.852Z,17.83
2023-01-04T14:49:17.548Z,17.48
2023-01-04T14:54:24.358Z,17.80
2023-01-04T14:56:54.952Z,16.55
2023-01-04T14:59:24.431Z,18.40
2023-01-04T15:01:57.620Z,18.08
2023-01-04T15:04:26.181Z,15.73
2023-01-04T15:07:00.811Z,18.73
2023-01-04T15:09:30.282Z,16.23
2023-01-04T15:11:58.527Z,20.52
2023-01-04T15:14:27.005Z,17.85
2023-01-04T15:16:55.408Z,16.50
2023-01-04T15:19:23.716Z,17.08
2023-01-04T15:21:52.100Z,15.55
2023-01-04T15:24:20.498Z,19.00
2023-01-04T15:26:48.785Z,19.98
2023-01-04T15:29:17.061Z,17.80
2023-01-04T15:31:45.610Z,20.55
2023-01-04T15:34:15.003Z,19.15
2023-01-04T15:36:43.432Z,16.25
2023-01-04T15:39:15.335Z,17.50
2023-01-04T15:41:43.761Z,17.90
2023-01-04T15:44:12.203Z,18.60
2023-01-04T15:46:40.593Z,18.88
2023-01-04T15:49:15.002Z,20.20
2023-01-04T15:51:43.363Z,17.05
2023-01-04T15:54:11.933Z,18.77
2023-01-04T15:56:40.660Z,17.50
2023-01-04T15:59:08.687Z,20.10
2023-01-04T16:01:37.179Z,18.58
2023-01-04T16:04:07.523Z,20.05
2023-01-04T16:06:35.783Z,18.75
2023-01-04T16:09:04.278Z,17.90
2023-01-04T16:11:33.187Z,20.52
2023-01-04T16:14:01.720Z,17.20
2023-01-04T16:16:30.208Z,22.88
2023-01-04T16:18:58.612Z,16.70
2023-01-04T16:21:28.832Z,18.92
2023-01-04T16:24:06.990Z,19.77
2023-01-04T16:26:38.272Z,17.40
2023-01-04T16:29:06.540Z,17.83
2023-01-04T16:31:36.308Z,17.30
2023-01-04T16:34:05.743Z,16.63
2023-01-04T16:36:34.003Z,17.88
2023-01-04T16:39:02.846Z,19.90
2023-01-04T16:41:31.234Z,18.67
2023-01-04T16:44:00.885Z,20.88
2023-01-04T16:46:30.449Z,21.88
2023-01-04T16:49:02.571Z,16.90
2023-01-04T16:51:32.865Z,19.33
2023-01-04T16:54:03.615Z,19.60
2023-01-04T16:56:33.260Z,16.55
2023-01-04T16:59:02.119Z,17.15
2023-01-04T17:01:34.813Z,18.48
2023-01-04T17:04:08.194Z,16.02
2023-01-04T17:06:44.852Z,18.27
2023-01-04T17:09:19.169Z,18.88
2023-01-04T17:14:36.390Z,16.70
2023-01-04T17:17:04.498Z,15.85
2023-01-04T17:19:32.668Z,18.02
2023-01-04T17:22:00.943Z,19.75
2023-01-04T17:24:29.286Z,17.05
2023-01-04T17:26:57.509Z,19.00
2023-01-04T17:29:25.696Z,16.27
2023-01-04T17:31:54.026Z,16.95
2023-01-04T17:34:23.184Z,16.83
2023-01-04T17:36:51.849Z,18.65
2023-01-04T17:39:20.133Z,16.38
2023-01-04T17:41:48.353Z,17.95
2023-01-04T17:44:16.713Z,17.38
2023-01-04T17:46:44.867Z,21.13
2023-01-04T17:49:31.996Z,19.35
2023-01-04T17:52:00.826Z,17.27
2023-01-04T17:54:29.130Z,21.08
2023-01-04T17:56:57.385Z,21.05
2023-01-04T17:59:25.563Z,19.58
2023-01-04T18:01:53.961Z,18.92
2023-01-04T18:04:22.295Z,21.13
2023-01-04T18:06:50.605Z,17.88
2023-01-04T18:09:22.231Z,19.60
2023-01-04T18:11:52.717Z,18.40
2023-01-04T18:14:20.875Z,21.20
2023-01-04T18:16:49.226Z,21.20
2023-01-04T18:19:17.565Z,21.20
2023-01-04T18:21:45.869Z,21.90
2023-01-04T18:24:35.399Z,18.00
2023-01-04T18:27:20.973Z,23.52
2023-01-04T18:29:51.263Z,17.83
2023-01-04T18:32:19.785Z,20.73
2023-01-04T18:34:47.994Z,21.27
2023-01-04T18:37:16.637Z,21.65
2023-01-04T18:42:12.910Z,27.05
2023-01-04T18:44:47.402Z,25.90
2023-01-04T18:47:18.016Z,22.83
2023-01-04T18:49:46.383Z,25.95
2023-01-04T18:52:15.043Z,21.30
2023-01-04T18:54:43.279Z,21.90
2023-01-04T18:57:12.139Z,25.40
2023-01-04T18:59:41.560Z,22.73
2023-01-04T19:02:16.078Z,20.05
2023-01-04T19:04:44.750Z,24.50
2023-01-04T19:07:13.187Z,27.30
2023-01-04T19:09:42.285Z,25.20
2023-01-04T19:12:11.108Z,24.83
2023-01-04T19:14:40.661Z,27.10
2023-01-04T19:17:10.268Z,24.52
2023-01-04T19:19:38.581Z,27.38
2023-01-04T19:22:06.806Z,26.52
2023-01-04T19:24:35.062Z,23.63
2023-01-04T19:27:03.482Z,29.48
2023-01-04T19:29:32.528Z,27.00
2023-01-04T19:32:00.868Z,25.20
2023-01-04T19:34:29.437Z,28.70
2023-01-04T19:36:57.845Z,31.35
2023-01-04T19:39:26.017Z,26.80
2023-01-04T19:41:54.262Z,27.65
2023-01-04T19:44:22.768Z,31.48
2023-01-04T19:46:50.865Z,31.60
2023-01-04T19:49:19.231Z,27.75
2023-01-04T19:51:49.426Z,31.10
2023-01-04T19:54:24.509Z,29.95
2023-01-04T19:56:54.352Z,28.73
2023-01-04T19:59:22.916Z,32.00
2023-01-04T20:01:51.348Z,32.53
2023-01-04T20:04:20.253Z,28.58
2023-01-04T20:09:17.008Z,31.05
2023-01-04T20:11:45.264Z,29.30
2023-01-04T20:14:13.491Z,31.77
2023-01-04T20:16:41.802Z,31.05
2023-01-04T20:19:10.062Z,32.88
2023-01-04T20:21:38.367Z,32.45
2023-01-04T20:24:08.022Z,32.78
2023-01-04T20:26:36.958Z,27.17
2023-01-04T20:29:05.829Z,31.50
2023-01-04T20:34:02.618Z,30.65
2023-01-04T20:36:30.870Z,29.17
2023-01-04T20:38:59.995Z,34.17
2023-01-04T20:41:29.374Z,33.63
2023-01-04T20:43:57.638Z,32.42
2023-01-04T20:46:28.739Z,34.28
2023-01-04T20:48:57.189Z,30.77
2023-01-04T20:51:27.099Z,31.77
2023-01-04T20:53:56.541Z,26.15
2023-01-04T20:56:27.889Z,29.80
2023-01-04T20:58:56.695Z,27.15
2023-01-04T21:01:25.193Z,30.23
2023-01-04T21:03:53.578Z,31.77
2023-01-04T21:06:22.509Z,29.60
2023-01-04T21:08:51.626Z,29.65
2023-01-04T21:11:20.230Z,31.85
2023-01-04T21:13:51.672Z,27.83
2023-01-04T21:16:20.206Z,28.98
2023-01-04T21:18:48.666Z,30.80
2023-01-04T21:21:18.825Z,32.63
2023-01-04T21:23:51.728Z,30.95
2023-01-04T21:26:23.230Z,33.15
2023-01-04T21:28:51.595Z,35.20
2023-01-04T21:31:25.285Z,34.10
2023-01-04T21:33:54.862Z,30.23
2023-01-04T21:36:28.399Z,30.75
2023-01-04T21:38:59.382Z,32.08
2023-01-04T21:41:27.832Z,30.48
2023-01-04T21:43:58.680Z,29.80
2023-01-04T21:46:27.859Z,34.67
2023-01-04T21:49:01.263Z,27.10
2023-01-04T21:51:30.291Z,26.02
2023-01-04T21:53:58.911Z,28.73
2023-01-04T21:58:55.352Z,27.27
2023-01-04T22:01:32.359Z,31.45
2023-01-04T22:04:03.027Z,26.70
2023-01-04T22:06:31.434Z,32.65
2023-01-04T22:08:59.983Z,30.45
2023-01-04T22:11:28.136Z,27.95
2023-01-04T22:13:56.929Z,33.58
2023-01-04T22:16:25.380Z,29.75
2023-01-04T22:18:53.704Z,32.38
2023-01-04T22:21:23.180Z,33.28
2023-01-04T22:23:52.133Z,34.22
2023-01-04T22:26:20.633Z,32.33
2023-01-04T22:28:48.918Z,32.97
2023-01-04T22:31:17.275Z,31.38
2023-01-04T22:33:45.651Z,29.50
2023-01-04T22:36:22.250Z,30.60
2023-01-04T22:38:53.733Z,32.17
2023-01-04T22:41:24.114Z,30.08
2023-01-04T22:44:13.076Z,29.00
2023-01-04T22:46:41.428Z,30.70
2023-01-04T22:49:11.120Z,29.10
2023-01-04T22:51:39.823Z,27.20
2023-01-04T22:54:09.686Z,28.77
2023-01-04T22:56:38.119Z,30.42
2023-01-04T22:59:06.431Z,31.05
2023-01-04T23:01:43.535Z,30.52
2023-01-04T23:04:16.739Z,30.73
2023-01-04T23:06:45.535Z,32.17
2023-01-04T23:11:43.919Z,27.20
2023-01-04T23:14:17.691Z,30.58
2023-01-04T23:16:46.315Z,32.33
2023-01-04T23:19:15.156Z,32.45
2023-01-04T23:24:16.000Z,35.42
2023-01-04T23:26:44.895Z,33.28
2023-01-04T23:29:13.338Z,36.05
2023-01-04T23:31:42.068Z,36.47
2023-01-04T23:36:41.533Z,40.42
2023-01-04T23:39:13.812Z,38.50
2023-01-04T23:41:42.988Z,37.50
2023-01-04T23:44:13.821Z,37.13
2023-01-04T23:46:42.623Z,35.20
2023-01-04T23:49:12.132Z,40.00
2023-01-04T23:51:40.857Z,39.58
2023-01-04T23:56:37.406Z,36.88
2023-01-04T23:59:06.284Z,38.35
